Time;durP1;ratioP1;P1;durP2;ratioP2;P2;SDS_P1;SDS_P2;PMS_P1;PMS_P2;Temp;Humidity;BMP_temperature;BMP_pressure;BME280_temperature;BME280_humidity;BME280_pressure;Samples;Min_cycle;Max_cycle;Signal;HPM_P1;HPM_P2
2022/01/14 00:02:06;;;;;;;74.13;46.35;;;;;;;;;;5015548;28;20191;-90
2022/01/14 00:04:36;;;;;;;90.32;50.97;;;;;;;;;;5015521;28;20198;-90
2022/01/14 00:07:05;;;;;;;79.97;51.28;;;;;;;;;;5015896;28;20206;-90
2022/01/14 00:09:34;;;;;;;91.15;53.05;;;;;;;;;;5015424;28;20217;-90
2022/01/14 00:12:10;;;;;;;94.18;52.50;;;;;;;;;;5015911;28;20194;-90
2022/01/14 00:14:40;;;;;;;96.47;50.47;;;;;;;;;;5015736;28;20610;-90
2022/01/14 00:17:19;;;;;;;99.70;50.05;;;;;;;;;;5015646;28;20239;-90
2022/01/14 00:19:50;;;;;;;117.78;53.20;;;;;;;;;;5012333;28;20349;-90
2022/01/14 00:22:19;;;;;;;120.15;52.22;;;;;;;;;;5013010;28;20213;-90
2022/01/14 00:33:05;;;;;;;106.20;50.47;;;;;;;;;;5018901;28;20198;-89
2022/01/14 00:35:33;;;;;;;95.97;49.85;;;;;;;;;;5019122;28;20204;-90
2022/01/14 00:38:02;;;;;;;122.55;52.33;;;;;;;;;;5001095;28;20203;-90
2022/01/14 00:40:30;;;;;;;110.70;51.70;;;;;;;;;;5018243;28;20233;-90
2022/01/14 00:42:57;;;;;;;96.60;52.00;;;;;;;;;;5019331;28;20233;-90
2022/01/14 00:45:25;;;;;;;86.78;49.55;;;;;;;;;;5019481;28;20265;-89
2022/01/14 00:47:52;;;;;;;87.72;48.53;;;;;;;;;;4999142;28;20207;-89
2022/01/14 00:50:21;;;;;;;104.03;49.80;;;;;;;;;;5014839;28;20231;-90
2022/01/14 00:52:48;;;;;;;85.60;42.50;;;;;;;;;;5014863;28;20195;-90
2022/01/14 00:55:26;;;;;;;76.13;43.55;;;;;;;;;;5014271;28;20233;-89
2022/01/14 01:00:39;;;;;;;69.97;41.05;;;;;;;;;;5014565;28;20270;-89
2022/01/14 01:03:06;;;;;;;73.72;41.00;;;;;;;;;;4996956;28;20202;-90
2022/01/14 01:05:34;;;;;;;45.85;34.53;;;;;;;;;;5014533;28;20210;-89
2022/01/14 01:08:06;;;;;;;65.18;41.03;;;;;;;;;;5014388;28;20231;-90
2022/01/14 01:10:36;;;;;;;55.75;37.20;;;;;;;;;;5014202;28;20298;-89
2022/01/14 01:13:10;;;;;;;49.72;36.38;;;;;;;;;;5017901;28;20205;-89
2022/01/14 01:15:38;;;;;;;59.33;35.97;;;;;;;;;;5002062;28;20190;-89
2022/01/14 01:18:05;;;;;;;87.40;40.33;;;;;;;;;;5018073;28;20207;-89
2022/01/14 01:20:32;;;;;;;73.20;38.92;;;;;;;;;;5000369;28;20280;-89
2022/01/14 01:23:00;;;;;;;92.85;41.63;;;;;;;;;;5017985;28;20198;-90
2022/01/14 01:25:35;;;;;;;89.30;40.40;;;;;;;;;;5017732;28;20202;-88
2022/01/14 01:28:04;;;;;;;77.22;41.35;;;;;;;;;;5017978;28;20201;-89
2022/01/14 01:31:03;;;;;;;68.78;38.88;;;;;;;;;;5017850;28;20218;-89
2022/01/14 01:33:30;;;;;;;73.28;39.25;;;;;;;;;;5020183;28;20194;-90
2022/01/14 01:35:57;;;;;;;70.65;39.67;;;;;;;;;;5018766;28;20207;-89
2022/01/14 01:38:25;;;;;;;95.55;37.30;;;;;;;;;;5019358;28;20209;-89
2022/01/14 01:40:53;;;;;;;68.68;35.47;;;;;;;;;;5018582;28;20293;-89
2022/01/14 01:43:25;;;;;;;49.70;33.17;;;;;;;;;;5018740;28;20198;-90
2022/01/14 01:45:54;;;;;;;51.50;35.13;;;;;;;;;;5018449;28;20242;-89
2022/01/14 01:48:22;;;;;;;47.30;34.28;;;;;;;;;;5018757;28;20206;-90
2022/01/14 01:50:49;;;;;;;54.03;33.75;;;;;;;;;;5018706;28;20281;-90
2022/01/14 01:53:17;;;;;;;57.38;34.58;;;;;;;;;;5001265;28;20197;-89
2022/01/14 01:55:45;;;;;;;42.88;33.22;;;;;;;;;;5018430;28;20210;-90
2022/01/14 01:58:12;;;;;;;45.85;30.85;;;;;;;;;;5019130;28;20198;-89
2022/01/14 02:00:41;;;;;;;48.97;34.05;;;;;;;;;;5019561;28;20230;-90
2022/01/14 02:03:09;;;;;;;56.17;33.83;;;;;;;;;;5017320;28;20577;-90
2022/01/14 02:05:36;;;;;;;57.58;34.58;;;;;;;;;;5018856;28;20524;-90
2022/01/14 02:08:10;;;;;;;50.40;33.25;;;;;;;;;;5017012;28;20228;-90
2022/01/14 02:10:39;;;;;;;73.32;34.10;;;;;;;;;;5017538;28;20560;-89
2022/01/14 02:13:06;;;;;;;65.50;29.98;;;;;;;;;;5017596;28;20214;-91
2022/01/14 02:18:32;;;;;;;107.75;36.15;;;;;;;;;;5023439;28;20233;-90
2022/01/14 02:23:51;;;;;;;93.70;38.10;;;;;;;;;;5019607;28;20713;-89
2022/01/14 02:26:19;;;;;;;66.53;36.20;;;;;;;;;;5017978;28;20201;-92
2022/01/14 02:28:48;;;;;;;85.65;37.13;;;;;;;;;;5018023;28;20221;-91
2022/01/14 02:31:15;;;;;;;72.75;36.40;;;;;;;;;;5017599;28;20225;-89
2022/01/14 02:33:43;;;;;;;79.45;35.70;;;;;;;;;;5017426;28;20210;-89
2022/01/14 02:36:12;;;;;;;65.07;33.75;;;;;;;;;;5017169;28;20210;-89
2022/01/14 02:38:39;;;;;;;80.18;35.55;;;;;;;;;;5002288;28;20260;-92
2022/01/14 02:41:07;;;;;;;88.75;35.97;;;;;;;;;;5016808;28;20620;-89
2022/01/14 02:43:35;;;;;;;77.63;35.25;;;;;;;;;;5016952;28;20207;-89
2022/01/14 02:46:04;;;;;;;72.22;34.15;;;;;;;;;;5017025;28;20303;-89
2022/01/14 02:48:32;;;;;;;83.32;38.47;;;;;;;;;;5017533;28;20698;-89
2022/01/14 02:51:02;;;;;;;77.22;37.10;;;;;;;;;;5017638;28;20222;-89
2022/01/14 02:53:43;;;;;;;61.63;36.83;;;;;;;;;;5018235;28;20256;-89
2022/01/14 02:56:11;;;;;;;57.60;30.08;;;;;;;;;;5018193;28;20202;-92
2022/01/14 02:58:40;;;;;;;75.35;34.90;;;;;;;;;;5002823;28;20258;-91
2022/01/14 03:01:09;;;;;;;65.25;36.08;;;;;;;;;;5024813;28;20225;-89
2022/01/14 03:03:37;;;;;;;48.55;35.28;;;;;;;;;;5020013;28;20213;-89
2022/01/14 03:06:04;;;;;;;69.30;35.03;;;;;;;;;;5018066;28;20718;-91
2022/01/14 03:08:34;;;;;;;66.32;35.22;;;;;;;;;;5014492;28;20229;-90
2022/01/14 03:11:02;;;;;;;50.35;34.30;;;;;;;;;;5016200;28;20194;-91
2022/01/14 03:13:30;;;;;;;53.47;34.35;;;;;;;;;;5016887;28;20244;-89
2022/01/14 03:15:57;;;;;;;44.08;31.63;;;;;;;;;;5016329;28;20186;-89
2022/01/14 03:18:33;;;;;;;49.05;32.58;;;;;;;;;;5015774;28;20571;-89
2022/01/14 03:21:09;;;;;;;50.28;33.50;;;;;;;;;;5015972;28;20218;-89
2022/01/14 03:23:44;;;;;;;43.42;32.03;;;;;;;;;;5016374;28;20226;-89
2022/01/14 03:26:11;;;;;;;39.28;32.67;;;;;;;;;;5019385;28;20193;-91
2022/01/14 03:28:38;;;;;;;53.20;32.40;;;;;;;;;;5021841;28;20209;-91
2022/01/14 03:31:07;;;;;;;41.15;31.67;;;;;;;;;;5001099;28;20195;-91
2022/01/14 03:33:34;;;;;;;38.25;33.50;;;;;;;;;;5016444;28;20246;-89
2022/01/14 03:36:02;;;;;;;44.75;35.33;;;;;;;;;;5015008;28;20213;-89
2022/01/14 03:38:29;;;;;;;41.80;33.10;;;;;;;;;;5015165;28;20193;-89
2022/01/14 03:40:58;;;;;;;43.45;34.13;;;;;;;;;;5014665;28;20235;-89
2022/01/14 03:43:26;;;;;;;40.22;34.25;;;;;;;;;;5015699;28;20212;-89
2022/01/14 03:45:53;;;;;;;52.22;35.53;;;;;;;;;;5015217;28;20614;-89
2022/01/14 03:48:20;;;;;;;46.83;33.58;;;;;;;;;;5015540;28;20193;-89
2022/01/14 03:50:48;;;;;;;38.35;31.10;;;;;;;;;;5015386;28;20230;-89
2022/01/14 03:53:15;;;;;;;35.92;32.03;;;;;;;;;;5015172;28;20190;-88
2022/01/14 03:55:43;;;;;;;48.47;33.95;;;;;;;;;;5015237;28;20657;-88
2022/01/14 03:58:12;;;;;;;46.45;34.45;;;;;;;;;;5015289;28;20203;-89
2022/01/14 04:00:40;;;;;;;42.47;34.35;;;;;;;;;;4997889;28;20233;-89
2022/01/14 04:03:08;;;;;;;52.35;35.30;;;;;;;;;;5015162;28;20225;-89
2022/01/14 04:05:49;;;;;;;46.08;34.90;;;;;;;;;;5016077;28;20190;-89
2022/01/14 04:08:17;;;;;;;42.10;33.15;;;;;;;;;;5014925;28;20266;-89
2022/01/14 04:10:45;;;;;;;51.53;33.60;;;;;;;;;;5015138;28;20205;-88
2022/01/14 04:13:21;;;;;;;49.63;34.25;;;;;;;;;;5015067;28;20195;-90
2022/01/14 04:15:48;;;;;;;37.83;33.70;;;;;;;;;;5015050;28;20256;-90
2022/01/14 04:18:17;;;;;;;52.67;35.30;;;;;;;;;;5015057;28;20648;-90
2022/01/14 04:20:47;;;;;;;48.42;35.00;;;;;;;;;;5015459;28;20233;-90
2022/01/14 04:23:15;;;;;;;56.03;36.60;;;;;;;;;;5015666;28;20204;-90
2022/01/14 04:25:43;;;;;;;51.78;37.97;;;;;;;;;;4997627;28;20207;-90
2022/01/14 04:28:11;;;;;;;59.17;36.17;;;;;;;;;;5015459;28;20206;-90
2022/01/14 04:30:39;;;;;;;48.95;34.28;;;;;;;;;;5014962;28;20199;-90
2022/01/14 04:33:07;;;;;;;66.00;38.42;;;;;;;;;;5014797;28;20215;-90
2022/01/14 04:35:34;;;;;;;43.88;35.80;;;;;;;;;;5014726;28;20195;-89
2022/01/14 04:38:02;;;;;;;48.28;35.90;;;;;;;;;;5015082;28;20202;-88
2022/01/14 04:40:29;;;;;;;58.40;38.25;;;;;;;;;;5017237;28;20191;-89
2022/01/14 04:42:58;;;;;;;57.83;37.25;;;;;;;;;;5015018;28;20202;-90
2022/01/14 04:45:43;;;;;;;60.13;39.38;;;;;;;;;;5014823;28;20524;-90
2022/01/14 04:48:13;;;;;;;65.45;38.58;;;;;;;;;;5001159;28;20256;-90
2022/01/14 04:50:40;;;;;;;53.95;36.45;;;;;;;;;;5019096;28;20222;-90
2022/01/14 04:53:10;;;;;;;48.33;35.50;;;;;;;;;;5019604;28;20191;-90
2022/01/14 04:55:37;;;;;;;53.63;38.05;;;;;;;;;;5018371;28;20251;-90
2022/01/14 04:58:05;;;;;;;57.03;39.92;;;;;;;;;;5018974;28;20214;-90
2022/01/14 05:00:33;;;;;;;56.63;37.50;;;;;;;;;;5019072;28;20221;-90
2022/01/14 05:03:00;;;;;;;93.05;38.35;;;;;;;;;;5019808;28;20222;-90
2022/01/14 05:05:33;;;;;;;60.47;39.45;;;;;;;;;;5021598;28;20202;-90
2022/01/14 05:08:01;;;;;;;81.13;39.65;;;;;;;;;;5011926;28;20245;-90
2022/01/14 05:10:37;;;;;;;65.82;37.15;;;;;;;;;;5019665;28;20198;-90
2022/01/14 05:13:05;;;;;;;52.40;37.63;;;;;;;;;;5018233;28;20214;-90
2022/01/14 05:15:32;;;;;;;59.90;36.58;;;;;;;;;;5018292;28;20199;-90
2022/01/14 05:18:00;;;;;;;48.45;36.58;;;;;;;;;;5018150;28;20203;-90
2022/01/14 05:20:29;;;;;;;66.03;38.55;;;;;;;;;;5018247;28;20203;-90
2022/01/14 05:22:56;;;;;;;81.15;39.85;;;;;;;;;;5017235;28;20224;-90
2022/01/14 05:25:23;;;;;;;51.33;36.83;;;;;;;;;;5017772;28;20207;-90
2022/01/14 05:27:51;;;;;;;68.72;37.47;;;;;;;;;;5018031;28;20219;-90
2022/01/14 05:30:18;;;;;;;61.42;36.30;;;;;;;;;;5018256;28;20210;-90
2022/01/14 05:32:47;;;;;;;82.45;45.55;;;;;;;;;;5024157;28;20217;-90
2022/01/14 05:35:15;;;;;;;64.93;39.00;;;;;;;;;;5018069;28;20223;-90
2022/01/14 05:37:44;;;;;;;61.75;39.22;;;;;;;;;;5018154;28;20195;-91
2022/01/14 05:40:12;;;;;;;67.63;38.70;;;;;;;;;;5018026;28;20199;-90
2022/01/14 05:42:40;;;;;;;64.47;38.15;;;;;;;;;;5019355;28;20222;-90
2022/01/14 05:45:08;;;;;;;57.47;38.10;;;;;;;;;;5018185;28;20214;-90
2022/01/14 05:47:36;;;;;;;91.25;41.35;;;;;;;;;;5017417;28;20207;-90
2022/01/14 05:50:03;;;;;;;85.63;41.15;;;;;;;;;;5018149;28;20607;-90
2022/01/14 05:52:30;;;;;;;64.95;39.08;;;;;;;;;;5018420;28;20212;-91
2022/01/14 05:54:59;;;;;;;56.75;37.08;;;;;;;;;;5020087;28;20207;-90
2022/01/14 05:57:27;;;;;;;62.95;36.90;;;;;;;;;;5018879;28;20211;-90
2022/01/14 05:59:54;;;;;;;69.35;39.70;;;;;;;;;;5017860;28;20613;-89
2022/01/14 06:02:22;;;;;;;60.70;38.40;;;;;;;;;;5017765;28;20245;-90
2022/01/14 06:04:49;;;;;;;72.28;38.40;;;;;;;;;;5019257;28;20224;-90
2022/01/14 06:07:17;;;;;;;71.22;39.92;;;;;;;;;;5021921;28;20210;-90
2022/01/14 06:09:44;;;;;;;57.03;39.03;;;;;;;;;;5016966;28;20234;-90
2022/01/14 06:12:13;;;;;;;76.65;37.80;;;;;;;;;;5020284;28;20202;-90
2022/01/14 06:14:41;;;;;;;58.55;38.15;;;;;;;;;;5018971;28;20199;-89
2022/01/14 06:17:08;;;;;;;64.30;37.35;;;;;;;;;;5018923;28;20208;-90
2022/01/14 06:19:35;;;;;;;85.75;38.50;;;;;;;;;;5017998;28;20671;-90
2022/01/14 06:22:03;;;;;;;59.05;36.45;;;;;;;;;;5017287;28;20214;-90
2022/01/14 06:24:30;;;;;;;59.15;35.08;;;;;;;;;;5017735;28;20548;-90
2022/01/14 06:29:45;;;;;;;65.32;35.92;;;;;;;;;;5018351;28;20197;-90
2022/01/14 06:32:13;;;;;;;63.30;37.53;;;;;;;;;;5017301;28;20225;-90
2022/01/14 06:34:40;;;;;;;78.60;36.70;;;;;;;;;;5016081;28;20201;-90
2022/01/14 06:37:07;;;;;;;109.22;41.25;;;;;;;;;;5016905;28;20195;-90
2022/01/14 06:39:35;;;;;;;77.53;39.08;;;;;;;;;;5015578;28;20210;-90
2022/01/14 06:42:02;;;;;;;65.25;37.30;;;;;;;;;;5016244;28;20576;-89
2022/01/14 06:44:29;;;;;;;58.40;36.53;;;;;;;;;;5016076;28;20189;-90
2022/01/14 06:46:58;;;;;;;77.97;37.40;;;;;;;;;;5015646;28;20206;-90
2022/01/14 06:49:26;;;;;;;75.72;37.85;;;;;;;;;;5015567;28;20218;-90
2022/01/14 06:51:53;;;;;;;92.40;40.45;;;;;;;;;;5015890;28;20209;-88
2022/01/14 06:54:20;;;;;;;63.92;39.70;;;;;;;;;;5015540;28;20196;-90
2022/01/14 06:56:48;;;;;;;95.28;42.72;;;;;;;;;;5015365;28;20553;-89
2022/01/14 06:59:15;;;;;;;73.00;39.17;;;;;;;;;;5015287;28;20193;-90
2022/01/14 07:01:42;;;;;;;98.95;42.33;;;;;;;;;;5015340;28;20579;-90
2022/01/14 07:04:11;;;;;;;64.47;41.75;;;;;;;;;;5015408;28;20212;-89
2022/01/14 07:06:39;;;;;;;97.05;41.50;;;;;;;;;;5015484;28;20206;-90
2022/01/14 07:09:06;;;;;;;95.97;41.50;;;;;;;;;;5014556;28;20256;-89
2022/01/14 07:11:37;;;;;;;79.20;40.40;;;;;;;;;;5015244;28;20221;-89
2022/01/14 07:14:04;;;;;;;97.25;42.80;;;;;;;;;;5015380;28;20218;-89
2022/01/14 07:16:33;;;;;;;84.43;42.35;;;;;;;;;;5015303;28;20218;-89
2022/01/14 07:19:01;;;;;;;83.90;44.33;;;;;;;;;;5014957;28;20218;-89
2022/01/14 07:21:33;;;;;;;67.65;37.70;;;;;;;;;;5014742;28;20202;-89
2022/01/14 07:24:00;;;;;;;83.15;39.10;;;;;;;;;;5014950;28;20191;-89
2022/01/14 07:26:27;;;;;;;73.85;42.33;;;;;;;;;;5014802;28;20201;-89
2022/01/14 07:28:55;;;;;;;82.70;40.85;;;;;;;;;;5014746;28;20207;-88
2022/01/14 07:31:22;;;;;;;84.93;42.30;;;;;;;;;;5014828;28;20192;-89
2022/01/14 07:33:49;;;;;;;77.88;40.28;;;;;;;;;;5014814;28;20205;-91
2022/01/14 07:36:17;;;;;;;90.45;40.60;;;;;;;;;;5014902;28;20207;-91
2022/01/14 07:38:46;;;;;;;91.07;41.22;;;;;;;;;;4997607;28;20202;-88
2022/01/14 07:41:13;;;;;;;72.82;44.08;;;;;;;;;;5014695;28;20194;-85
2022/01/14 07:43:41;;;;;;;64.72;41.03;;;;;;;;;;5014328;28;20241;-88
2022/01/14 07:46:08;;;;;;;73.10;39.58;;;;;;;;;;5014465;28;20241;-85
2022/01/14 07:48:36;;;;;;;75.65;40.58;;;;;;;;;;5014514;28;20226;-86
2022/01/14 07:51:03;;;;;;;72.65;43.42;;;;;;;;;;4996613;28;20249;-85
2022/01/14 07:53:30;;;;;;;102.07;42.20;;;;;;;;;;5014037;28;20319;-85
2022/01/14 07:56:00;;;;;;;83.32;44.55;;;;;;;;;;5014292;28;20541;-85
2022/01/14 07:58:28;;;;;;;74.25;42.95;;;;;;;;;;5014421;28;20278;-83
2022/01/14 08:00:55;;;;;;;76.47;42.13;;;;;;;;;;5013843;28;20615;-84
2022/01/14 08:03:22;;;;;;;80.90;43.45;;;;;;;;;;5013420;28;20232;-84
2022/01/14 08:05:53;;;;;;;64.72;40.78;;;;;;;;;;5014055;28;20219;-84
2022/01/14 08:08:20;;;;;;;76.50;45.70;;;;;;;;;;5013745;28;20663;-85
2022/01/14 08:10:48;;;;;;;83.65;47.88;;;;;;;;;;5013511;28;20592;-85
2022/01/14 08:13:17;;;;;;;79.05;51.83;;;;;;;;;;5013754;28;20187;-85
2022/01/14 08:15:44;;;;;;;68.63;44.60;;;;;;;;;;5013794;28;20192;-85
2022/01/14 08:18:12;;;;;;;76.70;41.78;;;;;;;;;;5013699;28;20536;-84
2022/01/14 08:20:39;;;;;;;66.78;40.55;;;;;;;;;;5014123;28;20191;-90
2022/01/14 08:23:06;;;;;;;61.67;39.85;;;;;;;;;;5017807;28;20615;-86
2022/01/14 08:25:34;;;;;;;47.67;35.83;;;;;;;;;;5018368;28;20215;-86
2022/01/14 08:28:01;;;;;;;53.08;37.78;;;;;;;;;;5018157;28;20190;-88
2022/01/14 08:30:30;;;;;;;68.22;41.70;;;;;;;;;;5018126;28;20189;-87
2022/01/14 08:32:57;;;;;;;68.40;40.22;;;;;;;;;;5017956;28;20199;-87
2022/01/14 08:35:25;;;;;;;60.15;40.83;;;;;;;;;;5017918;28;20195;-86
2022/01/14 08:37:52;;;;;;;68.00;41.28;;;;;;;;;;5018140;28;20194;-86
2022/01/14 08:40:19;;;;;;;85.28;43.95;;;;;;;;;;5017546;28;20194;-86
2022/01/14 08:42:52;;;;;;;64.20;39.08;;;;;;;;;;5017374;28;20241;-83
2022/01/14 08:45:21;;;;;;;62.50;41.15;;;;;;;;;;4999916;28;20285;-85
2022/01/14 08:47:52;;;;;;;64.10;37.42;;;;;;;;;;5017462;28;20239;-86
2022/01/14 08:50:19;;;;;;;66.88;41.53;;;;;;;;;;5017849;28;20619;-86
2022/01/14 08:52:46;;;;;;;51.60;36.92;;;;;;;;;;5017910;28;20249;-86
2022/01/14 08:55:16;;;;;;;53.63;40.83;;;;;;;;;;5017203;28;20190;-86
2022/01/14 08:57:43;;;;;;;59.30;41.60;;;;;;;;;;5017468;28;20198;-86
2022/01/14 09:00:11;;;;;;;59.67;38.97;;;;;;;;;;5017326;28;20201;-86
2022/01/14 09:02:39;;;;;;;69.18;39.47;;;;;;;;;;5017382;28;20286;-86
2022/01/14 09:05:10;;;;;;;57.10;36.65;;;;;;;;;;5017218;28;20198;-86
2022/01/14 09:07:38;;;;;;;58.10;40.50;;;;;;;;;;5016956;28;20199;-85
2022/01/14 09:10:06;;;;;;;61.05;36.13;;;;;;;;;;5017370;28;20215;-86
2022/01/14 09:12:33;;;;;;;61.92;35.28;;;;;;;;;;5017079;28;20194;-86
2022/01/14 09:15:01;;;;;;;52.70;35.85;;;;;;;;;;4999791;28;20253;-86
2022/01/14 09:17:29;;;;;;;60.95;38.58;;;;;;;;;;5017196;28;20230;-86
2022/01/14 09:19:56;;;;;;;57.92;36.58;;;;;;;;;;5016932;28;20190;-86
2022/01/14 09:22:28;;;;;;;53.42;37.60;;;;;;;;;;5017005;28;20264;-88
2022/01/14 09:24:57;;;;;;;52.92;37.45;;;;;;;;;;5017024;28;20204;-91
2022/01/14 09:27:25;;;;;;;47.47;35.53;;;;;;;;;;5016943;28;20205;-92
2022/01/14 09:29:54;;;;;;;54.10;38.70;;;;;;;;;;5016998;28;20199;-93
2022/01/14 09:32:21;;;;;;;52.70;39.95;;;;;;;;;;5016845;28;20226;-88
2022/01/14 09:34:49;;;;;;;54.35;37.28;;;;;;;;;;5016912;28;20201;-87
2022/01/14 09:37:16;;;;;;;58.42;40.70;;;;;;;;;;5017165;28;20202;-84
2022/01/14 09:39:45;;;;;;;65.68;39.63;;;;;;;;;;5016767;28;20269;-92
2022/01/14 09:42:13;;;;;;;61.00;40.88;;;;;;;;;;5025297;28;20190;-90
2022/01/14 09:44:40;;;;;;;62.60;41.95;;;;;;;;;;5016279;28;20249;-96
2022/01/14 09:49:51;;;;;;;63.42;40.00;;;;;;;;;;5208695;23;20257;-96
2022/01/14 09:52:20;;;;;;;51.33;36.05;;;;;;;;;;5047212;23;20194;-96
2022/01/14 09:54:50;;;;;;;44.13;35.38;;;;;;;;;;5049346;28;20625;-96
2022/01/14 09:57:18;;;;;;;53.17;34.58;;;;;;;;;;5041103;28;20197;-96
2022/01/14 09:59:46;;;;;;;45.65;35.60;;;;;;;;;;5041166;28;20194;-96
2022/01/14 10:04:42;;;;;;;56.13;38.03;;;;;;;;;;4976132;28;20212;-85
2022/01/14 10:07:12;;;;;;;53.60;37.53;;;;;;;;;;4976829;28;20202;-88
2022/01/14 10:09:43;;;;;;;48.58;36.88;;;;;;;;;;4976886;28;20193;-84
2022/01/14 10:12:13;;;;;;;52.58;37.95;;;;;;;;;;4976795;28;20206;-84
2022/01/14 10:14:43;;;;;;;45.10;35.92;;;;;;;;;;4959475;28;20203;-84
2022/01/14 10:17:11;;;;;;;45.20;33.53;;;;;;;;;;4976781;28;20685;-84
2022/01/14 10:19:40;;;;;;;47.55;34.70;;;;;;;;;;4959729;28;20200;-84
2022/01/14 10:22:19;;;;;;;40.80;31.05;;;;;;;;;;4976413;28;20196;-85
2022/01/14 10:24:55;;;;;;;48.72;34.47;;;;;;;;;;4977426;28;20577;-84
2022/01/14 10:27:32;;;;;;;51.20;36.22;;;;;;;;;;4976776;28;20564;-85
2022/01/14 10:30:07;;;;;;;43.63;34.30;;;;;;;;;;4977161;28;20200;-84
2022/01/14 10:32:36;;;;;;;41.08;34.20;;;;;;;;;;4976589;28;20192;-84
2022/01/14 10:35:05;;;;;;;38.15;30.85;;;;;;;;;;4976553;28;20205;-84
2022/01/14 10:37:34;;;;;;;46.95;34.72;;;;;;;;;;4976147;28;20686;-83
2022/01/14 10:40:02;;;;;;;42.75;32.83;;;;;;;;;;4976303;28;20235;-83
2022/01/14 10:42:31;;;;;;;40.55;34.35;;;;;;;;;;4976273;28;20544;-84
2022/01/14 10:45:15;;;;;;;42.65;33.03;;;;;;;;;;4975582;28;20196;-84
2022/01/14 10:47:42;;;;;;;45.22;33.78;;;;;;;;;;4976063;28;20195;-83
2022/01/14 10:50:09;;;;;;;43.03;35.17;;;;;;;;;;4958490;28;20236;-84
2022/01/14 10:52:37;;;;;;;49.72;35.70;;;;;;;;;;4976010;28;20659;-84
2022/01/14 10:55:04;;;;;;;50.72;35.15;;;;;;;;;;4975826;28;20201;-85
2022/01/14 10:57:32;;;;;;;55.45;36.38;;;;;;;;;;4975866;28;20289;-84
2022/01/14 11:00:16;;;;;;;40.17;34.38;;;;;;;;;;4975614;28;20192;-84
2022/01/14 11:02:45;;;;;;;50.40;34.50;;;;;;;;;;4975831;28;20236;-84
2022/01/14 11:05:13;;;;;;;46.88;34.33;;;;;;;;;;4975867;28;20197;-84
2022/01/14 11:07:41;;;;;;;57.63;34.60;;;;;;;;;;4975776;28;20193;-85
2022/01/14 11:10:18;;;;;;;50.30;36.40;;;;;;;;;;4975781;28;20280;-84
2022/01/14 11:12:46;;;;;;;52.45;36.95;;;;;;;;;;4976049;28;20632;-85
2022/01/14 11:15:16;;;;;;;52.28;36.58;;;;;;;;;;4976538;28;20263;-84
2022/01/14 11:17:46;;;;;;;58.30;37.97;;;;;;;;;;4975854;28;20251;-85
2022/01/14 11:20:14;;;;;;;50.10;38.20;;;;;;;;;;4975395;28;20199;-85
2022/01/14 11:25:26;;;;;;;56.42;39.15;;;;;;;;;;4980974;28;20287;-86
2022/01/14 11:27:55;;;;;;;67.03;40.03;;;;;;;;;;4994969;28;20191;-85
2022/01/14 11:30:44;;;;;;;57.83;38.97;;;;;;;;;;4995836;28;20252;-86
2022/01/14 11:33:11;;;;;;;62.17;42.03;;;;;;;;;;4994424;28;20199;-86
2022/01/14 11:35:40;;;;;;;67.32;42.33;;;;;;;;;;4994806;28;20228;-88
2022/01/14 11:38:25;;;;;;;61.60;38.90;;;;;;;;;;4994792;28;20213;-86
2022/01/14 11:40:53;;;;;;;67.28;39.50;;;;;;;;;;4985070;28;20656;-87
2022/01/14 11:43:35;;;;;;;73.88;40.42;;;;;;;;;;4994599;28;20720;-88
2022/01/14 11:46:04;;;;;;;56.60;41.38;;;;;;;;;;4992481;28;20214;-86
2022/01/14 11:48:33;;;;;;;59.20;40.25;;;;;;;;;;4977259;28;20265;-87
2022/01/14 11:51:01;;;;;;;71.60;43.53;;;;;;;;;;4994513;28;20287;-88
2022/01/14 11:53:46;;;;;;;79.63;44.88;;;;;;;;;;4994530;28;20604;-87
2022/01/14 11:56:32;;;;;;;57.95;41.75;;;;;;;;;;4994349;28;20186;-87
2022/01/14 11:59:15;;;;;;;65.95;38.95;;;;;;;;;;4994828;28;20199;-86
2022/01/14 12:01:44;;;;;;;61.33;38.38;;;;;;;;;;4976779;28;20207;-86
2022/01/14 12:04:11;;;;;;;64.72;38.92;;;;;;;;;;4994279;28;20653;-87
2022/01/14 12:06:59;;;;;;;57.38;39.90;;;;;;;;;;4994647;28;20579;-87
2022/01/14 12:09:32;;;;;;;54.30;41.65;;;;;;;;;;4994099;28;20189;-84
2022/01/14 12:12:18;;;;;;;67.65;43.92;;;;;;;;;;4994356;28;20211;-84
2022/01/14 12:14:55;;;;;;;69.63;40.33;;;;;;;;;;4994384;28;20202;-85
2022/01/14 12:17:32;;;;;;;58.72;40.35;;;;;;;;;;4994152;28;20199;-85
2022/01/14 12:20:07;;;;;;;55.50;37.72;;;;;;;;;;4994255;28;20209;-84
2022/01/14 12:22:34;;;;;;;63.25;40.58;;;;;;;;;;4993854;28;20638;-84
2022/01/14 12:25:02;;;;;;;69.80;43.47;;;;;;;;;;4976747;28;20238;-84
2022/01/14 12:27:34;;;;;;;62.78;40.15;;;;;;;;;;4994329;28;20200;-85
2022/01/14 12:30:02;;;;;;;58.60;40.30;;;;;;;;;;4993991;28;20196;-84
2022/01/14 12:32:35;;;;;;;61.53;42.40;;;;;;;;;;4994468;28;20230;-84
2022/01/14 12:35:04;;;;;;;71.68;40.03;;;;;;;;;;4994151;28;20190;-84
2022/01/14 12:37:33;;;;;;;70.50;42.95;;;;;;;;;;4994294;28;20202;-85
2022/01/14 12:40:08;;;;;;;75.18;45.55;;;;;;;;;;4993818;28;20637;-84
2022/01/14 12:42:35;;;;;;;60.03;40.53;;;;;;;;;;4994029;28;20195;-84
2022/01/14 12:45:05;;;;;;;61.92;40.78;;;;;;;;;;4994093;28;20224;-85
2022/01/14 12:47:35;;;;;;;65.82;40.38;;;;;;;;;;4993915;28;20198;-83
2022/01/14 12:50:05;;;;;;;57.70;41.70;;;;;;;;;;4993927;28;20223;-84
2022/01/14 12:52:38;;;;;;;68.40;40.58;;;;;;;;;;4994116;28;20202;-84
2022/01/14 12:55:06;;;;;;;65.53;41.58;;;;;;;;;;4993804;28;20592;-84
2022/01/14 12:57:34;;;;;;;95.63;47.42;;;;;;;;;;4993862;28;20192;-84
2022/01/14 13:00:01;;;;;;;65.63;42.03;;;;;;;;;;4994032;28;20203;-84
2022/01/14 13:02:31;;;;;;;68.70;46.33;;;;;;;;;;4993658;28;20270;-85
2022/01/14 13:05:02;;;;;;;68.57;42.80;;;;;;;;;;4993959;28;20224;-84
2022/01/14 13:07:31;;;;;;;64.38;45.20;;;;;;;;;;4977071;28;20255;-84
2022/01/14 13:09:58;;;;;;;80.28;45.15;;;;;;;;;;4997581;28;20196;-84
2022/01/14 13:12:30;;;;;;;72.28;43.28;;;;;;;;;;4980261;28;20263;-84
2022/01/14 13:15:00;;;;;;;61.03;42.58;;;;;;;;;;4997792;28;20620;-84
2022/01/14 13:17:28;;;;;;;64.15;41.30;;;;;;;;;;4964311;28;20207;-84
2022/01/14 13:20:00;;;;;;;75.82;45.80;;;;;;;;;;4997111;28;20655;-84
2022/01/14 13:22:30;;;;;;;63.75;42.40;;;;;;;;;;4979994;28;20209;-84
2022/01/14 13:25:00;;;;;;;50.83;38.85;;;;;;;;;;4995555;28;20632;-84
2022/01/14 13:27:28;;;;;;;63.78;42.40;;;;;;;;;;4997244;28;20248;-84
2022/01/14 13:29:57;;;;;;;62.67;42.80;;;;;;;;;;4997284;28;20252;-84
2022/01/14 13:32:26;;;;;;;63.67;42.70;;;;;;;;;;4997817;28;20296;-84
2022/01/14 13:34:54;;;;;;;72.28;45.38;;;;;;;;;;4997902;28;20194;-85
2022/01/14 13:37:22;;;;;;;108.82;48.60;;;;;;;;;;4997161;28;20262;-85
2022/01/14 13:40:08;;;;;;;74.93;46.70;;;;;;;;;;4997483;28;20555;-85
2022/01/14 13:42:36;;;;;;;86.55;47.08;;;;;;;;;;4997274;28;20216;-85
2022/01/14 13:45:15;;;;;;;76.75;47.13;;;;;;;;;;4996835;28;20315;-85
2022/01/14 13:47:43;;;;;;;79.32;46.13;;;;;;;;;;4996858;28;20654;-83
2022/01/14 13:50:14;;;;;;;76.53;45.92;;;;;;;;;;4996907;28;20206;-84
2022/01/14 13:52:44;;;;;;;87.65;49.28;;;;;;;;;;4999912;28;20662;-85
2022/01/14 13:55:13;;;;;;;68.80;45.30;;;;;;;;;;4997566;28;20299;-85
2022/01/14 13:57:41;;;;;;;77.13;46.28;;;;;;;;;;4997448;28;20200;-85
2022/01/14 14:00:10;;;;;;;82.93;47.75;;;;;;;;;;4996916;28;20370;-85
2022/01/14 14:02:46;;;;;;;78.82;48.65;;;;;;;;;;4997075;28;20246;-85
2022/01/14 14:05:28;;;;;;;91.90;49.47;;;;;;;;;;4996212;28;20247;-84
2022/01/14 14:08:06;;;;;;;81.50;47.42;;;;;;;;;;4995624;28;20212;-85
2022/01/14 14:11:45;;;;;;;89.45;47.35;;;;;;;;;;4996478;28;20556;-84
2022/01/14 14:15:37;;;;;;;94.57;48.97;;;;;;;;;;4995852;28;20573;-85
2022/01/14 14:16:27;;;;;;;75.22;45.10;;;;;;;;;;4996281;28;20245;-85
2022/01/14 14:18:56;;;;;;;81.40;47.83;;;;;;;;;;4995746;28;20200;-85
2022/01/14 14:21:24;;;;;;;78.43;45.10;;;;;;;;;;4996991;28;20224;-85
2022/01/14 14:23:55;;;;;;;94.30;48.05;;;;;;;;;;4996473;28;20215;-86
2022/01/14 14:26:30;;;;;;;80.65;47.58;;;;;;;;;;4996680;28;20276;-85
2022/01/14 14:29:01;;;;;;;79.63;49.17;;;;;;;;;;4979932;28;20202;-85
2022/01/14 14:31:32;;;;;;;72.47;48.92;;;;;;;;;;4996585;28;20201;-85
2022/01/14 14:34:00;;;;;;;78.50;46.22;;;;;;;;;;4996646;28;20198;-85
2022/01/14 14:36:30;;;;;;;85.22;48.17;;;;;;;;;;4979230;28;20208;-85
2022/01/14 14:38:57;;;;;;;103.88;55.83;;;;;;;;;;4996808;28;20263;-85
2022/01/14 14:41:24;;;;;;;96.22;56.50;;;;;;;;;;4996671;28;20662;-85
2022/01/14 14:43:53;;;;;;;78.05;50.17;;;;;;;;;;4996774;28;20227;-85
2022/01/14 14:46:20;;;;;;;88.22;49.95;;;;;;;;;;4996069;28;20200;-88
2022/01/14 14:48:48;;;;;;;80.60;50.03;;;;;;;;;;4996138;28;20219;-85
2022/01/14 14:51:15;;;;;;;75.63;52.55;;;;;;;;;;4995760;28;20284;-86
2022/01/14 14:53:43;;;;;;;88.13;52.67;;;;;;;;;;4995561;28;20653;-86
2022/01/14 14:56:10;;;;;;;86.32;50.47;;;;;;;;;;4995832;28;20208;-87
2022/01/14 14:58:38;;;;;;;90.18;51.65;;;;;;;;;;4995585;28;20197;-87